Time;durP1;ratioP1;P1;durP2;ratioP2;P2;SDS_P1;SDS_P2;PMS_P1;PMS_P2;Temp;Humidity;BMP_temperature;BMP_pressure;BME280_temperature;BME280_humidity;BME280_pressure;Samples;Min_cycle;Max_cycle;Signal;HPM_P1;HPM_P2
2022/07/06 00:02:11;;;;;;;3.95;2.20;;;;;;;19.66;49.34;99643.59;5149890;28;20168;-71
2022/07/06 00:05:02;;;;;;;6.13;2.20;;;;;;;19.73;49.20;99634.78;5164336;28;20050;-71
2022/07/06 00:07:52;;;;;;;4.72;2.40;;;;;;;19.71;49.35;99646.56;5149258;28;20050;-71
2022/07/06 00:10:43;;;;;;;6.63;1.88;;;;;;;19.78;49.18;99652.03;5163875;28;20105;-70
2022/07/06 00:13:33;;;;;;;5.20;2.30;;;;;;;19.68;50.36;99649.63;5159831;28;20546;-70
2022/07/06 00:16:24;;;;;;;6.68;2.38;;;;;;;19.85;50.32;99652.94;5163977;28;20057;-70
2022/07/06 00:19:14;;;;;;;3.80;1.85;;;;;;;19.77;49.84;99647.69;5164306;28;20603;-69
2022/07/06 00:22:04;;;;;;;4.90;2.33;;;;;;;19.77;50.11;99649.50;5148229;28;20518;-69
2022/07/06 00:24:54;;;;;;;3.58;2.42;;;;;;;19.51;50.81;99631.97;5163658;28;20055;-69
2022/07/06 00:27:45;;;;;;;4.45;2.20;;;;;;;19.51;50.43;99623.09;5162943;28;20549;-69
2022/07/06 00:30:35;;;;;;;5.35;2.20;;;;;;;19.25;51.34;99635.94;5163195;28;20080;-69
2022/07/06 00:33:25;;;;;;;5.13;2.70;;;;;;;19.33;51.44;99637.72;5145086;28;20141;-70
2022/07/06 00:36:15;;;;;;;7.88;2.13;;;;;;;19.33;51.20;99639.56;5150491;28;20054;-70
2022/07/06 00:39:05;;;;;;;5.70;2.65;;;;;;;19.21;51.61;99655.34;5163615;28;20066;-70
2022/07/06 00:41:56;;;;;;;8.05;2.78;;;;;;;19.32;51.16;99640.59;5161913;28;20350;-70
2022/07/06 00:44:47;;;;;;;3.10;2.58;;;;;;;19.28;52.11;99642.00;5162889;28;20065;-70
2022/07/06 00:47:38;;;;;;;6.50;2.50;;;;;;;19.22;51.61;99651.63;5161960;28;20056;-70
2022/07/06 00:50:30;;;;;;;6.45;2.80;;;;;;;19.18;51.47;99651.16;5162115;28;20523;-72
2022/07/06 00:53:22;;;;;;;5.15;2.65;;;;;;;19.21;51.47;99650.78;5161363;28;20257;-71
2022/07/06 00:56:12;;;;;;;4.82;2.40;;;;;;;19.15;51.78;99651.50;5177055;28;20351;-71
2022/07/06 00:59:03;;;;;;;9.55;2.70;;;;;;;19.04;51.88;99643.91;5164156;28;20046;-72
2022/07/06 01:01:53;;;;;;;5.50;2.45;;;;;;;18.98;52.08;99652.69;5161764;28;20239;-71
2022/07/06 01:04:43;;;;;;;6.65;2.50;;;;;;;18.83;52.54;99649.97;5163499;28;20081;-71
2022/07/06 01:07:36;;;;;;;5.30;2.50;;;;;;;18.98;53.04;99656.22;5163695;28;20055;-71
2022/07/06 01:10:26;;;;;;;6.68;2.85;;;;;;;18.86;52.44;99646.06;5159779;28;20509;-71
2022/07/06 01:13:16;;;;;;;6.22;2.47;;;;;;;19.02;52.43;99652.13;5162597;28;20061;-71
2022/07/06 01:16:07;;;;;;;5.80;2.55;;;;;;;18.81;53.07;99654.69;5142067;28;20115;-71
2022/07/06 01:18:57;;;;;;;4.07;2.70;;;;;;;18.72;52.47;99640.47;5160669;28;20042;-72
2022/07/06 01:21:47;;;;;;;7.35;2.88;;;;;;;18.63;53.00;99641.53;5161098;28;20631;-71
2022/07/06 01:24:38;;;;;;;4.47;2.60;;;;;;;18.71;52.38;99637.97;5163000;28;20161;-71
2022/07/06 01:27:28;;;;;;;3.60;2.67;;;;;;;18.51;52.82;99646.50;5163059;28;20056;-71
2022/07/06 01:30:19;;;;;;;4.47;2.63;;;;;;;18.55;53.33;99642.44;5163842;28;20168;-72
2022/07/06 01:33:09;;;;;;;7.45;2.70;;;;;;;18.46;52.85;99646.19;5132886;28;20055;-71
2022/07/06 01:36:00;;;;;;;4.00;2.47;;;;;;;18.32;53.29;99633.53;5163092;28;20163;-71
2022/07/06 01:38:54;;;;;;;5.45;2.80;;;;;;;18.42;52.93;99630.63;5166143;28;20128;-73
2022/07/06 01:41:44;;;;;;;4.13;2.15;;;;;;;18.44;53.46;99631.25;5163682;28;20412;-71
2022/07/06 01:44:34;;;;;;;7.18;2.78;;;;;;;18.47;53.31;99644.34;5163021;28;20521;-71
2022/07/06 01:47:25;;;;;;;4.72;2.55;;;;;;;18.34;54.17;99641.41;5160845;28;20054;-71
2022/07/06 01:50:15;;;;;;;3.17;2.45;;;;;;;18.31;53.08;99635.41;5174805;28;20188;-71
2022/07/06 01:53:08;;;;;;;4.38;2.60;;;;;;;18.03;53.57;99602.84;5174127;28;20129;-72
2022/07/06 01:55:58;;;;;;;3.95;2.47;;;;;;;18.09;53.84;99633.50;5175311;28;20070;-71
2022/07/06 01:58:49;;;;;;;6.03;2.55;;;;;;;18.05;53.48;99643.75;5174856;28;20181;-71
2022/07/06 02:01:40;;;;;;;6.00;3.03;;;;;;;18.04;54.44;99642.06;5159842;28;20050;-71
2022/07/06 02:04:30;;;;;;;7.93;2.75;;;;;;;17.94;54.67;99635.25;5140811;28;20070;-71
2022/07/06 02:07:21;;;;;;;6.95;2.63;;;;;;;17.93;54.52;99647.84;5174664;28;20090;-71
2022/07/06 02:10:11;;;;;;;5.97;2.75;;;;;;;17.92;54.74;99662.28;5160539;28;20096;-71
2022/07/06 02:13:02;;;;;;;6.97;2.95;;;;;;;17.71;55.61;99652.09;5157110;28;20058;-71
2022/07/06 02:15:54;;;;;;;3.08;2.60;;;;;;;17.82;55.44;99667.03;5174200;28;20147;-71
2022/07/06 02:18:44;;;;;;;5.82;2.60;;;;;;;17.72;55.22;99666.38;5160577;28;20054;-71
2022/07/06 02:21:34;;;;;;;5.35;3.03;;;;;;;17.68;54.13;99657.84;5160641;28;20069;-71
2022/07/06 02:24:25;;;;;;;4.43;2.63;;;;;;;17.71;54.82;99662.00;5162119;28;20531;-71
2022/07/06 02:27:15;;;;;;;3.53;2.78;;;;;;;17.74;54.60;99661.66;5174425;28;20188;-71
2022/07/06 02:30:07;;;;;;;6.40;2.70;;;;;;;17.69;55.13;99659.50;5160867;28;20116;-71
2022/07/06 02:32:59;;;;;;;3.03;2.70;;;;;;;17.58;55.17;99652.66;5172924;28;20061;-71
2022/07/06 02:35:49;;;;;;;2.83;2.53;;;;;;;17.51;55.36;99661.56;5162195;28;20088;-71
2022/07/06 02:38:40;;;;;;;6.70;2.83;;;;;;;17.49;55.93;99664.41;5161724;28;20046;-72
2022/07/06 02:41:30;;;;;;;4.93;2.95;;;;;;;17.47;55.52;99669.09;5152585;28;20054;-72
2022/07/06 02:44:21;;;;;;;5.53;2.92;;;;;;;17.44;56.27;99666.75;5161780;28;20086;-72
2022/07/06 02:47:11;;;;;;;6.80;2.90;;;;;;;17.27;54.72;99647.22;5160990;28;20077;-72
2022/07/06 02:50:02;;;;;;;7.15;2.80;;;;;;;17.42;55.34;99675.97;5161044;28;20054;-71
2022/07/06 02:52:54;;;;;;;5.93;2.70;;;;;;;17.38;55.18;99675.50;5159718;28;20124;-71
2022/07/06 02:55:45;;;;;;;3.97;2.80;;;;;;;17.39;55.65;99663.78;5149473;28;20073;-71
2022/07/06 02:58:35;;;;;;;7.97;2.88;;;;;;;17.36;54.98;99675.66;5161920;28;20058;-71
2022/07/06 03:01:25;;;;;;;4.25;2.83;;;;;;;17.23;56.00;99683.41;5145255;28;20505;-71
2022/07/06 03:04:16;;;;;;;8.55;2.90;;;;;;;17.13;56.39;99674.72;5161524;28;20161;-71
2022/07/06 03:07:07;;;;;;;6.97;3.00;;;;;;;17.24;55.96;99682.38;5160924;28;20052;-71
2022/07/06 03:09:58;;;;;;;4.90;3.08;;;;;;;16.89;56.85;99680.94;5174162;28;20097;-71
2022/07/06 03:12:49;;;;;;;6.53;3.05;;;;;;;17.13;55.88;99680.06;5176400;28;20066;-71
2022/07/06 03:15:40;;;;;;;6.88;3.00;;;;;;;17.04;56.15;99681.06;5150550;28;20046;-71
2022/07/06 03:18:30;;;;;;;5.60;2.90;;;;;;;17.19;56.11;99687.44;5165157;28;20050;-71
2022/07/06 03:21:21;;;;;;;4.05;3.08;;;;;;;17.08;56.51;99685.91;5148561;28;20042;-71
2022/07/06 03:24:12;;;;;;;5.95;3.28;;;;;;;17.23;55.90;99683.41;5164521;28;20128;-71
2022/07/06 03:27:03;;;;;;;5.70;2.58;;;;;;;17.44;55.40;99700.78;5160331;28;20070;-71
2022/07/06 03:29:53;;;;;;;6.80;3.28;;;;;;;17.22;55.72;99697.81;5165348;28;20176;-71
2022/07/06 03:32:45;;;;;;;4.22;2.78;;;;;;;16.99;56.79;99694.16;5176351;28;20128;-71
2022/07/06 03:35:36;;;;;;;3.85;2.92;;;;;;;16.84;57.25;99684.09;5150458;28;20054;-71
2022/07/06 03:38:29;;;;;;;7.90;3.00;;;;;;;17.01;56.18;99686.78;5177832;28;20128;-71
2022/07/06 03:41:19;;;;;;;4.10;3.15;;;;;;;16.69;57.12;99675.03;5162991;28;20056;-71
2022/07/06 03:44:10;;;;;;;9.18;3.15;;;;;;;17.03;56.74;99700.84;5163564;28;20061;-71
2022/07/06 03:47:00;;;;;;;5.50;3.22;;;;;;;17.03;56.82;99700.84;5163293;28;20057;-71
2022/07/06 03:49:51;;;;;;;8.82;3.55;;;;;;;17.28;56.44;99699.78;5163743;28;20066;-71
2022/07/06 03:52:41;;;;;;;7.18;2.88;;;;;;;17.16;55.72;99698.50;5162567;28;20054;-71
2022/07/06 03:55:32;;;;;;;8.35;3.38;;;;;;;17.17;56.25;99718.09;5149433;28;20058;-71
2022/07/06 03:58:26;;;;;;;8.90;3.42;;;;;;;17.14;56.80;99709.34;5164567;28;20089;-71
2022/07/06 04:01:17;;;;;;;7.38;3.25;;;;;;;17.01;56.74;99708.19;5175991;28;20155;-71
2022/07/06 04:04:08;;;;;;;4.07;2.90;;;;;;;16.93;57.15;99695.66;5163201;28;20062;-71
2022/07/06 04:07:01;;;;;;;11.82;3.15;;;;;;;17.11;56.53;99711.53;5163475;28;20427;-71
2022/07/06 04:09:52;;;;;;;9.32;3.50;;;;;;;16.96;57.54;99711.41;5176024;28;20045;-71
2022/07/06 04:12:44;;;;;;;8.77;3.40;;;;;;;16.91;57.48;99700.31;5154735;28;20053;-71
2022/07/06 04:15:36;;;;;;;8.32;4.20;;;;;;;17.01;57.50;99714.38;5165397;28;20130;-71
2022/07/06 04:18:28;;;;;;;4.95;3.28;;;;;;;17.01;57.82;99718.91;5163025;28;20544;-71
2022/07/06 04:21:19;;;;;;;3.70;2.92;;;;;;;17.10;57.51;99723.28;5148527;28;20046;-71
2022/07/06 04:24:10;;;;;;;6.43;3.05;;;;;;;17.02;57.11;99726.81;5161951;28;20057;-71
2022/07/06 04:27:01;;;;;;;6.07;3.85;;;;;;;16.97;57.55;99713.06;5161914;28;20077;-71
2022/07/06 04:29:53;;;;;;;5.88;3.63;;;;;;;16.98;57.96;99724.59;5172689;28;20042;-71
2022/07/06 04:32:45;;;;;;;6.17;3.87;;;;;;;17.03;57.82;99720.44;5156405;28;20061;-72
2022/07/06 04:35:36;;;;;;;6.78;3.47;;;;;;;17.17;58.42;99728.81;5160841;28;20064;-72
2022/07/06 04:38:27;;;;;;;7.53;3.88;;;;;;;17.16;57.77;99727.97;5149712;28;20042;-71
2022/07/06 04:41:22;;;;;;;9.07;4.07;;;;;;;16.99;58.70;99726.31;5175904;28;20046;-71
2022/07/06 04:44:14;;;;;;;7.13;4.10;;;;;;;17.29;58.21;99730.97;5148844;28;20065;-69
2022/07/06 04:47:05;;;;;;;5.18;3.80;;;;;;;17.22;58.42;99740.69;5162568;28;20511;-72
2022/07/06 04:49:56;;;;;;;5.60;4.00;;;;;;;17.39;58.10;99738.84;5162664;28;20070;-71
2022/07/06 04:52:46;;;;;;;8.57;4.00;;;;;;;17.65;57.39;99748.50;5162533;28;20057;-70
2022/07/06 04:55:37;;;;;;;6.00;4.30;;;;;;;17.42;57.93;99737.63;5158848;28;20054;-72
2022/07/06 04:58:28;;;;;;;7.97;3.95;;;;;;;17.62;57.52;99747.00;5176033;28;20505;-71
2022/07/06 05:01:18;;;;;;;7.65;4.10;;;;;;;17.59;57.77;99744.66;5162626;28;20712;-71
2022/07/06 05:04:10;;;;;;;7.90;3.80;;;;;;;17.66;57.23;99752.88;5147022;28;20181;-70
2022/07/06 05:07:00;;;;;;;7.82;4.20;;;;;;;17.84;57.15;99750.81;5176178;28;20208;-70
2022/07/06 05:09:51;;;;;;;7.18;4.07;;;;;;;17.62;57.66;99760.44;5161607;28;20135;-71
2022/07/06 05:12:42;;;;;;;8.15;4.25;;;;;;;17.84;56.78;99745.47;5161404;28;20061;-69
2022/07/06 05:15:34;;;;;;;6.63;4.03;;;;;;;17.65;57.53;99756.53;5175443;28;20061;-69
2022/07/06 05:18:25;;;;;;;6.10;3.90;;;;;;;18.00;56.34;99764.19;5175493;28;20081;-69
2022/07/06 05:21:16;;;;;;;6.47;3.75;;;;;;;18.04;57.49;99753.94;5175025;28;20201;-69
2022/07/06 05:24:06;;;;;;;8.90;4.68;;;;;;;18.07;56.89;99757.13;5162069;28;20050;-71
2022/07/06 05:26:56;;;;;;;5.32;4.10;;;;;;;18.49;56.22;99757.78;5155481;28;20121;-69
2022/07/06 05:29:47;;;;;;;5.47;4.00;;;;;;;18.61;54.87;99767.13;5170963;28;20046;-69
2022/07/06 05:32:38;;;;;;;7.90;4.18;;;;;;;18.41;56.00;99766.72;5165814;28;20066;-69
2022/07/06 05:35:29;;;;;;;11.63;4.00;;;;;;;18.19;56.76;99756.75;5160782;28;20427;-69
2022/07/06 05:38:40;;;;;;;6.60;4.07;;;;;;;18.51;55.37;99770.03;5160387;28;20493;-70
2022/07/06 05:41:30;;;;;;;5.72;3.80;;;;;;;18.40;56.05;99764.19;5145448;28;20050;-72
2022/07/06 05:44:22;;;;;;;6.47;4.15;;;;;;;18.77;55.63;99763.50;5152779;28;20461;-70
2022/07/06 05:50:22;;;;;;;5.72;3.83;;;;;;;19.02;55.46;99772.25;5171448;28;20098;-70
2022/07/06 05:53:16;;;;;;;12.30;4.35;;;;;;;18.72;54.45;99768.59;5147845;28;20621;-71
2022/07/06 05:56:13;;;;;;;6.72;3.70;;;;;;;19.13;54.82;99781.75;5145095;28;20069;-70
2022/07/06 05:59:05;;;;;;;4.22;3.30;;;;;;;19.20;53.75;99777.31;5132992;28;20515;-71
2022/07/06 06:01:55;;;;;;;4.20;3.17;;;;;;;18.89;54.19;99763.94;5143288;28;20065;-71
2022/07/06 06:04:47;;;;;;;7.15;3.88;;;;;;;18.75;55.15;99776.31;5143295;28;20510;-71
2022/07/06 06:07:38;;;;;;;4.50;3.22;;;;;;;19.25;53.48;99777.63;5139464;28;20074;-70
2022/07/06 06:10:28;;;;;;;4.78;3.13;;;;;;;19.37;54.23;99775.31;5135697;28;20062;-71
2022/07/06 06:13:22;;;;;;;4.38;3.50;;;;;;;19.59;53.54;99779.81;5138132;28;20200;-71
2022/07/06 06:16:12;;;;;;;6.78;3.25;;;;;;;19.43;51.62;99766.53;5132719;28;20065;-71
2022/07/06 06:19:03;;;;;;;3.15;2.85;;;;;;;19.47;53.21;99784.81;5142277;28;20058;-71
2022/07/06 06:21:53;;;;;;;4.13;3.25;;;;;;;19.51;53.63;99776.41;5144686;28;20540;-71
2022/07/06 06:24:43;;;;;;;4.95;3.10;;;;;;;19.54;53.96;99759.88;5143432;28;20054;-71
2022/07/06 06:27:34;;;;;;;5.75;3.40;;;;;;;19.25;53.98;99778.44;5143172;28;20050;-71
2022/07/06 06:30:24;;;;;;;4.45;3.22;;;;;;;19.77;52.45;99787.59;5142333;28;20421;-71
2022/07/06 06:33:17;;;;;;;9.73;3.15;;;;;;;19.99;51.01;99785.84;5141564;28;20538;-71
2022/07/06 06:36:07;;;;;;;8.20;3.17;;;;;;;20.24;52.63;99791.78;5137146;28;20205;-71
2022/07/06 06:38:57;;;;;;;10.57;3.30;;;;;;;20.30;51.26;99791.03;5136813;28;20120;-71
2022/07/06 06:41:48;;;;;;;4.70;3.42;;;;;;;20.36;51.29;99794.81;5133039;28;20340;-71
2022/07/06 06:44:38;;;;;;;5.97;3.22;;;;;;;20.16;50.84;99792.72;5137210;28;20065;-71
2022/07/06 06:47:27;;;;;;;6.75;2.80;;;;;;;20.30;51.34;99796.41;5138869;28;20088;-71
2022/07/06 06:50:18;;;;;;;4.00;3.00;;;;;;;20.53;50.66;99785.56;5143822;28;20104;-71
2022/07/06 06:53:08;;;;;;;3.78;3.08;;;;;;;20.93;51.39;99787.88;5146774;28;20583;-71
2022/07/06 06:55:58;;;;;;;7.32;3.03;;;;;;;20.87;49.56;99789.47;5148266;28;20058;-71
2022/07/06 06:58:49;;;;;;;6.10;2.95;;;;;;;20.85;49.13;99770.75;5148161;28;20051;-71
2022/07/06 07:01:59;;;;;;;5.18;2.33;;;;;;;22.29;47.07;99783.97;5145400;28;20069;-71
2022/07/06 07:04:49;;;;;;;3.95;2.60;;;;;;;23.14;44.13;99790.69;5148365;28;20519;-71
2022/07/06 07:07:40;;;;;;;4.88;2.50;;;;;;;23.35;44.32;99781.56;5145100;28;20050;-71
2022/07/06 07:10:31;;;;;;;3.08;2.40;;;;;;;24.35;40.74;99771.41;5139638;28;20133;-71
2022/07/06 07:13:22;;;;;;;4.22;2.55;;;;;;;23.79;41.02;99779.28;5136881;28;20412;-71
2022/07/06 07:16:12;;;;;;;4.65;2.58;;;;;;;22.45;43.75;99763.84;5143882;28;20064;-70
2022/07/06 07:19:03;;;;;;;8.18;2.30;;;;;;;24.41;40.67;99786.03;5136429;28;20472;-71
2022/07/06 07:21:52;;;;;;;4.43;2.50;;;;;;;24.92;39.01;99770.75;5137273;28;20530;-71
2022/07/06 07:24:43;;;;;;;8.75;2.47;;;;;;;25.54;39.23;99766.34;5141978;28;20132;-71
2022/07/06 07:27:33;;;;;;;4.72;2.10;;;;;;;26.08;37.88;99772.94;5147633;28;20066;-71
2022/07/06 07:30:24;;;;;;;6.70;2.72;;;;;;;25.92;38.55;99768.09;5144525;28;20523;-71
2022/07/06 07:33:14;;;;;;;4.15;2.15;;;;;;;26.10;38.16;99770.81;5140174;28;20077;-71
2022/07/06 07:36:04;;;;;;;6.45;2.47;;;;;;;26.13;38.13;99770.38;5142775;28;20054;-71
2022/07/06 07:38:54;;;;;;;2.58;1.90;;;;;;;26.40;37.25;99764.63;5139193;28;20054;-71
2022/07/06 07:41:44;;;;;;;6.97;2.42;;;;;;;24.33;39.38;99761.84;5138236;28;20050;-71
2022/07/06 07:44:35;;;;;;;2.80;2.13;;;;;;;24.45;39.43;99771.00;5139340;28;20069;-71
2022/07/06 07:47:25;;;;;;;5.13;2.28;;;;;;;24.65;39.39;99765.47;5145453;28;20069;-71
2022/07/06 07:50:15;;;;;;;2.85;2.08;;;;;;;25.52;38.76;99755.69;5145337;28;20116;-71
2022/07/06 07:53:05;;;;;;;4.00;2.25;;;;;;;26.51;36.88;99753.00;5143329;28;20069;-71
2022/07/06 07:55:56;;;;;;;3.50;2.30;;;;;;;27.16;36.35;99755.84;5142487;28;20058;-71
2022/07/06 07:58:48;;;;;;;5.80;2.45;;;;;;;27.65;35.12;99761.13;5141327;28;20061;-71
2022/07/06 08:01:41;;;;;;;3.97;2.10;;;;;;;25.84;37.28;99757.53;5145042;28;20062;-71
2022/07/06 08:04:31;;;;;;;5.00;2.25;;;;;;;27.20;36.54;99760.84;5138462;28;20148;-71
2022/07/06 08:07:22;;;;;;;6.07;2.13;;;;;;;27.36;36.16;99760.16;5139255;28;20108;-71
2022/07/06 08:10:12;;;;;;;4.82;2.10;;;;;;;27.57;35.54;99765.00;5137083;28;20310;-71
2022/07/06 08:13:03;;;;;;;3.95;2.25;;;;;;;27.08;38.15;99760.75;5142301;28;20521;-71
2022/07/06 08:15:54;;;;;;;5.95;2.00;;;;;;;26.60;37.19;99769.84;5145498;28;20050;-71
2022/07/06 08:18:44;;;;;;;6.72;2.60;;;;;;;27.34;36.60;99773.16;5142136;28;20059;-71
2022/07/06 08:21:35;;;;;;;5.45;2.55;;;;;;;27.34;34.66;99770.44;5134284;28;20054;-71
2022/07/06 08:24:25;;;;;;;4.63;2.60;;;;;;;26.33;37.47;99755.72;5141080;28;20116;-71
2022/07/06 08:27:16;;;;;;;7.82;2.50;;;;;;;26.27;38.00;99759.34;5142998;28;20060;-71
2022/07/06 08:30:07;;;;;;;5.43;2.10;;;;;;;26.88;38.00;99751.00;5144533;28;20089;-71
2022/07/06 08:32:57;;;;;;;7.32;2.15;;;;;;;27.36;38.01;99755.53;5141773;28;20544;-71
2022/07/06 08:35:57;;;;;;;4.70;2.45;;;;;;;26.14;39.01;99766.59;5141447;28;20062;-71
2022/07/06 08:38:48;;;;;;;6.28;2.65;;;;;;;26.17;40.31;99754.44;5146293;28;20179;-71
2022/07/06 08:41:41;;;;;;;5.80;2.80;;;;;;;26.23;37.23;99765.25;5145003;28;20062;-71
2022/07/06 08:44:32;;;;;;;8.82;2.50;;;;;;;26.37;38.02;99762.34;5192474;23;20569;-69
2022/07/06 08:47:24;;;;;;;12.68;2.50;;;;;;;28.12;36.04;99769.28;5188733;28;20053;-68
2022/07/06 08:50:15;;;;;;;9.13;2.40;;;;;;;27.50;37.60;99761.56;5185010;28;20426;-69
2022/07/06 08:53:06;;;;;;;4.78;2.80;;;;;;;26.48;37.39;99769.75;5182638;28;20053;-69
2022/07/06 08:55:56;;;;;;;4.70;2.88;;;;;;;27.08;36.98;99767.03;5183971;28;20060;-69
2022/07/06 08:58:47;;;;;;;4.88;2.67;;;;;;;26.11;38.21;99761.59;5189051;28;20126;-68
2022/07/06 09:01:38;;;;;;;4.18;2.42;;;;;;;26.69;39.53;99772.00;5185336;28;20187;-69
2022/07/06 09:04:31;;;;;;;8.02;3.00;;;;;;;27.52;35.57;99770.34;5186182;28;20404;-68
2022/07/06 09:07:22;;;;;;;3.63;2.63;;;;;;;28.30;37.19;99771.84;5187503;28;20107;-69
2022/07/06 09:10:32;;;;;;;5.53;2.35;;;;;;;27.72;36.54;99774.63;5185595;28;20053;-69
2022/07/06 09:13:22;;;;;;;5.50;2.92;;;;;;;26.56;37.06;99782.25;5189371;28;20119;-69
2022/07/06 09:16:15;;;;;;;3.88;2.25;;;;;;;28.47;35.46;99758.28;5189704;28;20195;-69
2022/07/06 09:19:25;;;;;;;5.43;2.35;;;;;;;28.60;33.17;99770.00;5190496;28;20060;-69
2022/07/06 09:22:30;;;;;;;4.82;2.22;;;;;;;29.25;36.25;99764.94;5188088;28;20774;-69
2022/07/06 09:25:20;;;;;;;7.07;2.55;;;;;;;28.57;33.92;99768.59;5186133;28;20135;-69
2022/07/06 09:28:11;;;;;;;11.35;1.98;;;;;;;28.33;35.87;99784.16;5184140;28;20123;-69
2022/07/06 09:31:07;;;;;;;5.35;2.20;;;;;;;27.48;37.16;99780.03;5178908;28;20064;-69
2022/07/06 09:34:07;;;;;;;3.88;2.03;;;;;;;28.16;36.46;99780.53;5185251;28;20318;-69
2022/07/06 09:36:58;;;;;;;7.40;2.72;;;;;;;25.80;38.95;99772.59;5186941;28;20050;-68
2022/07/06 09:39:48;;;;;;;4.18;1.90;;;;;;;27.42;36.67;99778.28;5186673;28;20061;-69
2022/07/06 09:42:38;;;;;;;4.50;2.35;;;;;;;25.48;40.65;99787.06;5182839;28;20053;-69
2022/07/06 09:45:29;;;;;;;4.25;2.15;;;;;;;26.61;38.06;99780.47;5181982;28;20060;-69
2022/07/06 09:48:25;;;;;;;6.95;2.40;;;;;;;28.01;37.67;99778.28;5183770;28;20278;-69
2022/07/06 09:51:16;;;;;;;6.47;2.60;;;;;;;26.71;38.60;99777.19;5187185;28;20064;-69
2022/07/06 09:54:12;;;;;;;7.20;2.53;;;;;;;26.97;37.61;99784.16;5190860;28;20136;-69
2022/07/06 09:57:03;;;;;;;7.35;2.50;;;;;;;26.25;39.72;99789.47;5190677;28;20507;-68
2022/07/06 09:59:58;;;;;;;4.03;2.33;;;;;;;26.68;38.38;99783.09;5189453;28;20127;-68
2022/07/06 10:02:49;;;;;;;5.63;2.70;;;;;;;27.03;37.88;99793.31;5180498;28;20060;-69
2022/07/06 10:05:47;;;;;;;3.67;2.25;;;;;;;26.77;38.75;99786.34;5184202;28;20434;-69
2022/07/06 10:08:38;;;;;;;4.40;2.38;;;;;;;25.85;40.29;99787.16;5181022;28;20152;-69
2022/07/06 10:11:29;;;;;;;8.05;2.38;;;;;;;26.87;42.04;99786.63;5183780;28;21326;-69
2022/07/06 10:14:25;;;;;;;4.88;2.58;;;;;;;27.50;36.91;99786.09;5190127;28;20061;-69
2022/07/06 10:17:16;;;;;;;8.98;2.60;;;;;;;27.58;38.45;99785.75;5190715;28;20187;-69
2022/07/06 10:20:07;;;;;;;8.38;2.55;;;;;;;27.03;36.32;99783.25;5192760;28;20057;-69
2022/07/06 10:23:00;;;;;;;6.85;2.10;;;;;;;26.68;37.07;99788.53;5185705;28;20488;-69
2022/07/06 10:25:51;;;;;;;4.35;2.00;;;;;;;26.96;38.34;99792.56;5182979;28;20053;-69
2022/07/06 10:28:42;;;;;;;4.88;2.03;;;;;;;28.05;39.12;99799.41;5180688;28;20531;-69
2022/07/06 10:31:34;;;;;;;5.88;2.58;;;;;;;28.83;37.56;99791.72;5179965;28;20057;-68
2022/07/06 10:34:25;;;;;;;3.53;2.13;;;;;;;26.71;39.13;99797.06;5183154;28;20478;-69
2022/07/06 10:37:24;;;;;;;5.30;2.17;;;;;;;25.83;38.71;99797.44;5188244;28;20369;-70
2022/07/06 10:43:44;;;;;;;7.80;2.50;;;;;;;25.12;40.82;99795.06;5193130;28;20064;-68
2022/07/06 10:46:35;;;;;;;7.28;2.63;;;;;;;25.97;41.28;99800.84;5193135;28;20501;-68
2022/07/06 10:49:27;;;;;;;6.72;2.17;;;;;;;27.44;37.23;99784.31;5184778;28;20195;-71
2022/07/06 10:52:58;;;;;;;4.55;2.25;;;;;;;26.11;38.41;99796.94;5185912;28;20088;-72
2022/07/06 10:55:51;;;;;;;4.78;2.42;;;;;;;25.80;40.38;99794.31;5206248;28;20046;-72
2022/07/06 10:58:52;;;;;;;5.70;2.33;;;;;;;26.69;39.77;99795.66;5183650;28;21162;-73
2022/07/06 11:02:19;;;;;;;9.82;2.13;;;;;;;25.62;39.77;99795.91;5192929;28;20515;-72
2022/07/06 11:05:42;;;;;;;7.88;2.50;;;;;;;26.52;40.14;99791.88;5192093;28;20394;-72
2022/07/06 11:08:57;;;;;;;8.50;2.90;;;;;;;26.46;37.75;99782.75;5183801;28;20055;-71
2022/07/06 11:11:48;;;;;;;4.40;2.70;;;;;;;24.82;40.97;99788.31;5192997;28;20072;-73
2022/07/06 11:14:38;;;;;;;5.18;2.20;;;;;;;24.76;40.30;99782.94;5193064;28;20052;-74
2022/07/06 11:17:29;;;;;;;7.85;2.95;;;;;;;25.08;41.35;99768.34;5193885;28;20524;-70
2022/07/06 11:20:19;;;;;;;6.95;3.85;;;;;;;25.23;39.18;99772.63;5189972;28;20427;-69
2022/07/06 11:23:13;;;;;;;5.93;2.58;;;;;;;26.25;40.54;99782.13;5192138;28;20044;-70
2022/07/06 11:26:03;;;;;;;6.63;2.70;;;;;;;26.94;39.43;99777.28;5192300;28;20053;-70
2022/07/06 11:28:53;;;;;;;9.35;2.50;;;;;;;27.30;39.32;99767.34;5184556;28;20089;-68
2022/07/06 11:31:46;;;;;;;6.35;2.50;;;;;;;26.70;36.79;99768.22;5195026;28;20053;-69
2022/07/06 11:34:44;;;;;;;5.03;2.42;;;;;;;26.94;39.15;99771.84;5195407;28;20505;-70
2022/07/06 11:37:34;;;;;;;6.85;2.95;;;;;;;26.59;36.83;99779.88;5192817;28;20894;-70
2022/07/06 11:40:24;;;;;;;6.00;2.80;;;;;;;25.20;40.62;99773.94;5193545;28;20107;-69
2022/07/06 11:43:14;;;;;;;5.68;2.63;;;;;;;25.76;39.32;99781.19;5195382;28;20053;-70
2022/07/06 11:46:04;;;;;;;5.68;2.60;;;;;;;25.04;39.83;99771.72;5196287;28;20054;-70
2022/07/06 11:49:00;;;;;;;3.45;2.53;;;;;;;24.14;42.64;99769.00;5188496;28;20060;-70
2022/07/06 11:51:53;;;;;;;7.35;2.85;;;;;;;24.83;40.76;99762.03;5195391;28;20060;-71
2022/07/06 11:54:44;;;;;;;5.75;2.60;;;;;;;25.07;40.70;99746.88;5194844;28;20073;-71
2022/07/06 11:57:35;;;;;;;3.72;2.65;;;;;;;25.33;41.39;99762.16;5193218;28;20061;-72
2022/07/06 12:00:25;;;;;;;9.57;3.30;;;;;;;25.90;40.08;99764.78;5197187;28;20064;-71
2022/07/06 12:03:16;;;;;;;8.68;3.47;;;;;;;25.10;40.13;99751.84;5177498;28;20096;-73
2022/07/06 12:06:13;;;;;;;6.28;2.63;;;;;;;25.07;39.42;99758.53;5188673;28;20139;-73
2022/07/06 12:09:04;;;;;;;14.80;4.05;;;;;;;25.30;39.67;99765.31;5189365;28;20535;-75
2022/07/06 12:11:54;;;;;;;10.85;2.80;;;;;;;24.98;40.98;99762.56;5190129;28;20057;-72
2022/07/06 12:14:44;;;;;;;10.20;3.00;;;;;;;24.88;39.74;99755.97;5188499;28;20054;-74
2022/07/06 12:17:37;;;;;;;5.47;2.78;;;;;;;24.94;40.61;99747.78;5189442;28;20067;-73
2022/07/06 12:20:28;;;;;;;5.57;2.53;;;;;;;25.77;40.89;99758.38;5185038;28;20052;-72
2022/07/06 12:23:20;;;;;;;7.25;3.03;;;;;;;25.17;39.53;99752.66;5181138;28;20038;-72
2022/07/06 12:26:11;;;;;;;9.45;3.22;;;;;;;24.48;40.32;99761.59;5178884;28;20060;-72
2022/07/06 12:29:12;;;;;;;7.90;2.53;;;;;;;25.54;39.84;99752.75;5179222;28;20151;-71
2022/07/06 12:32:05;;;;;;;4.55;2.60;;;;;;;26.01;38.06;99758.59;5180386;28;20111;-72
2022/07/06 12:35:07;;;;;;;4.90;2.20;;;;;;;26.58;39.03;99753.72;5179940;28;20122;-73
2022/07/06 12:37:57;;;;;;;4.38;2.60;;;;;;;26.83;37.45;99750.88;5171854;28;20061;-72
2022/07/06 12:40:48;;;;;;;12.60;2.70;;;;;;;26.16;37.83;99745.47;5185197;28;20068;-73
2022/07/06 12:43:40;;;;;;;8.55;2.38;;;;;;;26.20;38.16;99740.41;5188088;28;20419;-75
2022/07/06 12:46:34;;;;;;;4.25;1.85;;;;;;;26.47;38.23;99738.16;5188725;28;20069;-72
2022/07/06 12:49:25;;;;;;;3.63;2.28;;;;;;;25.27;39.43;99735.88;5188942;28;20057;-74
2022/07/06 12:52:16;;;;;;;6.88;2.20;;;;;;;25.77;39.10;99752.94;5185965;28;20527;-74
2022/07/06 12:55:09;;;;;;;5.03;2.28;;;;;;;25.50;38.66;99752.38;5183204;28;20061;-71
2022/07/06 12:58:00;;;;;;;4.77;2.00;;;;;;;25.17;38.29;99717.38;5180623;28;20107;-71
2022/07/06 13:00:51;;;;;;;8.60;2.15;;;;;;;26.07;37.22;99735.94;5180743;28;20472;-74
2022/07/06 13:03:41;;;;;;;5.07;1.98;;;;;;;25.61;38.24;99733.69;5175983;28;20053;-73
2022/07/06 13:06:34;;;;;;;7.13;1.80;;;;;;;25.76;38.03;99737.72;5185750;28;20081;-76
2022/07/06 13:09:24;;;;;;;4.75;1.80;;;;;;;25.14;39.00;99736.00;5185718;28;20150;-75
2022/07/06 13:12:15;;;;;;;3.63;1.67;;;;;;;25.17;39.26;99740.97;5185932;28;20053;-76
2022/07/06 13:15:07;;;;;;;2.47;1.67;;;;;;;24.34;40.31;99753.50;5188045;28;20046;-78
2022/07/06 13:17:58;;;;;;;3.95;1.92;;;;;;;25.21;38.73;99748.44;5181382;28;20069;-72
2022/07/06 13:20:48;;;;;;;5.50;2.05;;;;;;;25.67;36.84;99744.50;5178997;28;20061;-74
2022/07/06 13:23:38;;;;;;;5.40;2.00;;;;;;;25.61;37.87;99737.22;5177669;28;20128;-74
2022/07/06 13:26:28;;;;;;;3.08;1.77;;;;;;;26.21;38.08;99729.28;5180790;28;20191;-72
2022/07/06 13:29:19;;;;;;;3.22;1.98;;;;;;;26.31;36.57;99741.50;5181252;28;20500;-70
2022/07/06 13:32:09;;;;;;;3.55;1.70;;;;;;;26.08;37.11;99736.78;5178554;28;20087;-71
2022/07/06 13:34:59;;;;;;;2.58;1.83;;;;;;;25.87;36.74;99729.91;5176540;28;20380;-77
2022/07/06 13:37:50;;;;;;;3.47;1.90;;;;;;;24.85;37.66;99711.13;5182753;28;20434;-76